sensor_id;sensor_type;location;lat;lon;timestamp;temperature;humidity
19037;DHT22;9651;49.138;8.900;2023-04-30T00:02:04;12.70;99.90
19037;DHT22;9651;49.138;8.900;2023-04-30T00:06:06;12.70;99.90
19037;DHT22;9651;49.138;8.900;2023-04-30T00:10:09;12.60;99.90
19037;DHT22;9651;49.138;8.900;2023-04-30T00:14:12;12.60;99.90
19037;DHT22;9651;49.138;8.900;2023-04-30T00:18:14;12.60;99.90
19037;DHT22;9651;49.138;8.900;2023-04-30T00:22:16;12.60;99.90
19037;DHT22;9651;49.138;8.900;2023-04-30T00:26:18;12.60;99.90
19037;DHT22;9651;49.138;8.900;2023-04-30T00:30:24;12.60;99.90
19037;DHT22;9651;49.138;8.900;2023-04-30T00:34:26;12.70;99.90
19037;DHT22;9651;49.138;8.900;2023-04-30T00:38:28;12.60;99.90
19037;DHT22;9651;49.138;8.900;2023-04-30T00:42:30;12.60;99.90
19037;DHT22;9651;49.138;8.900;2023-04-30T00:46:33;12.50;99.90
19037;DHT22;9651;49.138;8.900;2023-04-30T00:50:35;12.50;99.90
19037;DHT22;9651;49.138;8.900;2023-04-30T00:54:37;12.50;99.90
19037;DHT22;9651;49.138;8.900;2023-04-30T00:58:39;12.50;99.90
19037;DHT22;9651;49.138;8.900;2023-04-30T01:02:43;12.50;99.90
19037;DHT22;9651;49.138;8.900;2023-04-30T01:06:45;12.50;99.90
19037;DHT22;9651;49.138;8.900;2023-04-30T01:10:52;12.50;99.90
19037;DHT22;9651;49.138;8.900;2023-04-30T01:15:03;12.40;99.90
19037;DHT22;9651;49.138;8.900;2023-04-30T01:19:19;12.40;99.90
19037;DHT22;9651;49.138;8.900;2023-04-30T01:23:35;12.40;99.90
19037;DHT22;9651;49.138;8.900;2023-04-30T01:28:04;12.30;99.90
19037;DHT22;9651;49.138;8.900;2023-04-30T01:32:06;12.30;99.90
19037;DHT22;9651;49.138;8.900;2023-04-30T01:36:25;12.30;99.90
19037;DHT22;9651;49.138;8.900;2023-04-30T01:40:40;12.30;99.90
19037;DHT22;9651;49.138;8.900;2023-04-30T01:44:57;12.30;99.90
19037;DHT22;9651;49.138;8.900;2023-04-30T01:49:19;12.40;99.90
19037;DHT22;9651;49.138;8.900;2023-04-30T01:53:32;12.30;99.90
19037;DHT22;9651;49.138;8.900;2023-04-30T01:57:39;12.30;99.90
19037;DHT22;9651;49.138;8.900;2023-04-30T02:01:43;12.30;99.90
19037;DHT22;9651;49.138;8.900;2023-04-30T02:05:46;12.30;99.90
19037;DHT22;9651;49.138;8.900;2023-04-30T02:09:48;12.30;99.90
19037;DHT22;9651;49.138;8.900;2023-04-30T02:13:50;12.30;99.90
19037;DHT22;9651;49.138;8.900;2023-04-30T02:17:53;12.30;99.90
19037;DHT22;9651;49.138;8.900;2023-04-30T02:21:55;12.20;99.90
19037;DHT22;9651;49.138;8.900;2023-04-30T02:25:57;12.20;99.90
19037;DHT22;9651;49.138;8.900;2023-04-30T02:29:59;12.20;99.90
19037;DHT22;9651;49.138;8.900;2023-04-30T02:34:02;12.20;99.90
19037;DHT22;9651;49.138;8.900;2023-04-30T02:38:04;12.20;99.90
19037;DHT22;9651;49.138;8.900;2023-04-30T02:42:06;12.10;99.90
19037;DHT22;9651;49.138;8.900;2023-04-30T02:46:08;12.10;99.90
19037;DHT22;9651;49.138;8.900;2023-04-30T02:50:12;12.10;99.90
19037;DHT22;9651;49.138;8.900;2023-04-30T02:54:13;12.10;99.90
19037;DHT22;9651;49.138;8.900;2023-04-30T02:58:15;12.10;99.90
19037;DHT22;9651;49.138;8.900;2023-04-30T03:02:17;12.10;99.90
19037;DHT22;9651;49.138;8.900;2023-04-30T03:06:22;12.00;99.90
19037;DHT22;9651;49.138;8.900;2023-04-30T03:10:24;12.00;99.90
19037;DHT22;9651;49.138;8.900;2023-04-30T03:14:26;11.90;99.90
19037;DHT22;9651;49.138;8.900;2023-04-30T03:18:28;11.90;99.90
19037;DHT22;9651;49.138;8.900;2023-04-30T03:22:31;11.90;99.90
19037;DHT22;9651;49.138;8.900;2023-04-30T03:26:33;11.90;99.90
19037;DHT22;9651;49.138;8.900;2023-04-30T03:30:35;11.80;99.90
19037;DHT22;9651;49.138;8.900;2023-04-30T03:34:37;11.80;99.90
19037;DHT22;9651;49.138;8.900;2023-04-30T03:38:41;11.80;99.90
19037;DHT22;9651;49.138;8.900;2023-04-30T03:42:43;11.80;99.90
19037;DHT22;9651;49.138;8.900;2023-04-30T03:46:45;11.70;99.90
19037;DHT22;9651;49.138;8.900;2023-04-30T03:50:47;11.70;99.90
19037;DHT22;9651;49.138;8.900;2023-04-30T03:54:51;11.70;99.90
19037;DHT22;9651;49.138;8.900;2023-04-30T03:58:54;11.70;99.90
19037;DHT22;9651;49.138;8.900;2023-04-30T04:02:56;11.70;99.90
19037;DHT22;9651;49.138;8.900;2023-04-30T04:06:58;11.70;99.90
19037;DHT22;9651;49.138;8.900;2023-04-30T04:11:03;11.60;99.90
19037;DHT22;9651;49.138;8.900;2023-04-30T04:15:06;11.50;99.90
19037;DHT22;9651;49.138;8.900;2023-04-30T04:19:10;11.50;99.90
19037;DHT22;9651;49.138;8.900;2023-04-30T04:23:13;11.50;99.90
19037;DHT22;9651;49.138;8.900;2023-04-30T04:27:16;11.50;99.90
19037;DHT22;9651;49.138;8.900;2023-04-30T04:31:19;11.50;99.90
19037;DHT22;9651;49.138;8.900;2023-04-30T04:35:22;11.50;99.90
19037;DHT22;9651;49.138;8.900;2023-04-30T04:39:24;11.50;99.90
19037;DHT22;9651;49.138;8.900;2023-04-30T04:43:27;11.50;99.90
19037;DHT22;9651;49.138;8.900;2023-04-30T04:47:29;11.60;99.90
19037;DHT22;9651;49.138;8.900;2023-04-30T04:51:31;11.60;99.90
19037;DHT22;9651;49.138;8.900;2023-04-30T04:55:33;11.60;99.90
19037;DHT22;9651;49.138;8.900;2023-04-30T04:59:36;11.70;99.90
19037;DHT22;9651;49.138;8.900;2023-04-30T05:03:39;11.70;99.90
19037;DHT22;9651;49.138;8.900;2023-04-30T05:07:41;11.80;99.90
19037;DHT22;9651;49.138;8.900;2023-04-30T05:11:43;11.80;99.90
19037;DHT22;9651;49.138;8.900;2023-04-30T05:15:49;11.80;99.90
19037;DHT22;9651;49.138;8.900;2023-04-30T05:19:52;11.90;99.90
19037;DHT22;9651;49.138;8.900;2023-04-30T05:23:54;12.00;99.90
19037;DHT22;9651;49.138;8.900;2023-04-30T05:27:56;12.10;99.90
19037;DHT22;9651;49.138;8.900;2023-04-30T05:32:00;12.10;99.90
19037;DHT22;9651;49.138;8.900;2023-04-30T05:36:06;12.10;99.90
19037;DHT22;9651;49.138;8.900;2023-04-30T05:40:19;12.10;99.90
19037;DHT22;9651;49.138;8.900;2023-04-30T05:44:21;12.00;99.90
19037;DHT22;9651;49.138;8.900;2023-04-30T05:48:24;12.10;99.90
19037;DHT22;9651;49.138;8.900;2023-04-30T05:52:27;12.50;99.90
19037;DHT22;9651;49.138;8.900;2023-04-30T05:56:28;12.80;99.90
19037;DHT22;9651;49.138;8.900;2023-04-30T06:00:30;13.20;99.90
19037;DHT22;9651;49.138;8.900;2023-04-30T06:04:34;13.40;99.90
19037;DHT22;9651;49.138;8.900;2023-04-30T06:08:36;13.60;99.90
19037;DHT22;9651;49.138;8.900;2023-04-30T06:12:38;14.00;99.90
19037;DHT22;9651;49.138;8.900;2023-04-30T06:16:40;14.20;99.90
19037;DHT22;9651;49.138;8.900;2023-04-30T06:20:43;14.60;99.90
19037;DHT22;9651;49.138;8.900;2023-04-30T06:24:45;14.70;99.90
19037;DHT22;9651;49.138;8.900;2023-04-30T06:28:47;14.60;99.90
19037;DHT22;9651;49.138;8.900;2023-04-30T06:32:48;15.00;99.90
19037;DHT22;9651;49.138;8.900;2023-04-30T06:36:52;15.10;99.90
19037;DHT22;9651;49.138;8.900;2023-04-30T06:40:54;14.90;99.90
19037;DHT22;9651;49.138;8.900;2023-04-30T06:44:56;14.90;99.90
19037;DHT22;9651;49.138;8.900;2023-04-30T06:48:58;15.20;99.90
19037;DHT22;9651;49.138;8.900;2023-04-30T06:53:01;15.70;99.90
19037;DHT22;9651;49.138;8.900;2023-04-30T06:57:03;15.90;99.90
19037;DHT22;9651;49.138;8.900;2023-04-30T07:01:05;15.80;99.90
19037;DHT22;9651;49.138;8.900;2023-04-30T07:05:07;15.70;99.90
19037;DHT22;9651;49.138;8.900;2023-04-30T07:09:12;16.10;99.90
19037;DHT22;9651;49.138;8.900;2023-04-30T07:13:15;16.50;99.90
19037;DHT22;9651;49.138;8.900;2023-04-30T07:17:17;16.70;99.90
19037;DHT22;9651;49.138;8.900;2023-04-30T07:21:18;16.90;99.90
19037;DHT22;9651;49.138;8.900;2023-04-30T07:25:22;17.30;99.90
19037;DHT22;9651;49.138;8.900;2023-04-30T07:29:24;17.60;99.90
19037;DHT22;9651;49.138;8.900;2023-04-30T07:33:26;17.60;99.90
19037;DHT22;9651;49.138;8.900;2023-04-30T07:37:28;17.60;99.90
19037;DHT22;9651;49.138;8.900;2023-04-30T07:41:31;17.60;99.90
19037;DHT22;9651;49.138;8.900;2023-04-30T07:45:33;18.00;99.90
19037;DHT22;9651;49.138;8.900;2023-04-30T07:49:35;18.20;99.90
19037;DHT22;9651;49.138;8.900;2023-04-30T07:53:37;18.40;99.90
19037;DHT22;9651;49.138;8.900;2023-04-30T07:57:40;18.10;99.90
19037;DHT22;9651;49.138;8.900;2023-04-30T08:01:42;18.40;99.90
19037;DHT22;9651;49.138;8.900;2023-04-30T08:05:44;18.20;99.90
19037;DHT22;9651;49.138;8.900;2023-04-30T08:09:45;18.30;99.90
19037;DHT22;9651;49.138;8.900;2023-04-30T08:13:49;18.40;99.90
19037;DHT22;9651;49.138;8.900;2023-04-30T08:17:51;18.50;99.90
19037;DHT22;9651;49.138;8.900;2023-04-30T08:21:53;18.60;99.90
19037;DHT22;9651;49.138;8.900;2023-04-30T08:25:55;18.80;99.90
19037;DHT22;9651;49.138;8.900;2023-04-30T08:29:58;19.70;99.90
19037;DHT22;9651;49.138;8.900;2023-04-30T08:34:00;20.50;99.90
19037;DHT22;9651;49.138;8.900;2023-04-30T08:38:02;21.00;99.90
19037;DHT22;9651;49.138;8.900;2023-04-30T08:42:08;21.20;99.90
19037;DHT22;9651;49.138;8.900;2023-04-30T08:46:11;21.50;99.90
19037;DHT22;9651;49.138;8.900;2023-04-30T08:50:13;21.70;99.90
19037;DHT22;9651;49.138;8.900;2023-04-30T08:54:17;21.40;99.90
19037;DHT22;9651;49.138;8.900;2023-04-30T08:58:19;21.50;99.90
19037;DHT22;9651;49.138;8.900;2023-04-30T09:02:22;21.90;99.90
19037;DHT22;9651;49.138;8.900;2023-04-30T09:06:24;21.00;99.90
19037;DHT22;9651;49.138;8.900;2023-04-30T09:10:26;21.80;99.90
19037;DHT22;9651;49.138;8.900;2023-04-30T09:14:28;21.60;99.90
19037;DHT22;9651;49.138;8.900;2023-04-30T09:18:38;21.20;99.90
19037;DHT22;9651;49.138;8.900;2023-04-30T09:22:41;21.70;99.90
19037;DHT22;9651;49.138;8.900;2023-04-30T09:26:44;21.90;99.90
19037;DHT22;9651;49.138;8.900;2023-04-30T09:30:46;21.40;99.90
19037;DHT22;9651;49.138;8.900;2023-04-30T09:34:50;21.10;99.90
19037;DHT22;9651;49.138;8.900;2023-04-30T09:38:52;21.00;99.90
19037;DHT22;9651;49.138;8.900;2023-04-30T09:42:57;21.10;99.00
19037;DHT22;9651;49.138;8.900;2023-04-30T09:46:59;20.90;99.90
19037;DHT22;9651;49.138;8.900;2023-04-30T09:51:03;20.70;99.90
19037;DHT22;9651;49.138;8.900;2023-04-30T09:55:06;20.60;99.90
19037;DHT22;9651;49.138;8.900;2023-04-30T09:59:08;20.70;99.90
19037;DHT22;9651;49.138;8.900;2023-04-30T10:03:13;21.30;99.00
19037;DHT22;9651;49.138;8.900;2023-04-30T10:07:19;20.90;97.80
19037;DHT22;9651;49.138;8.900;2023-04-30T10:11:25;20.40;98.50
19037;DHT22;9651;49.138;8.900;2023-04-30T10:15:33;20.40;98.00
19037;DHT22;9651;49.138;8.900;2023-04-30T10:19:39;20.50;97.80
19037;DHT22;9651;49.138;8.900;2023-04-30T10:23:44;19.90;98.50
19037;DHT22;9651;49.138;8.900;2023-04-30T10:27:46;19.70;98.10
19037;DHT22;9651;49.138;8.900;2023-04-30T10:31:49;19.20;97.80
19037;DHT22;9651;49.138;8.900;2023-04-30T10:35:56;19.50;98.60
19037;DHT22;9651;49.138;8.900;2023-04-30T10:40:01;19.70;98.40
19037;DHT22;9651;49.138;8.900;2023-04-30T10:44:07;20.20;99.00
19037;DHT22;9651;49.138;8.900;2023-04-30T10:48:09;20.40;97.70
19037;DHT22;9651;49.138;8.900;2023-04-30T10:52:10;20.60;97.50
19037;DHT22;9651;49.138;8.900;2023-04-30T10:56:28;20.20;97.70
19037;DHT22;9651;49.138;8.900;2023-04-30T11:00:30;20.20;98.30
19037;DHT22;9651;49.138;8.900;2023-04-30T11:04:32;20.10;98.10
19037;DHT22;9651;49.138;8.900;2023-04-30T11:08:36;20.30;98.50
19037;DHT22;9651;49.138;8.900;2023-04-30T11:12:43;19.80;97.70
19037;DHT22;9651;49.138;8.900;2023-04-30T11:16:48;20.00;97.60
19037;DHT22;9651;49.138;8.900;2023-04-30T11:20:51;20.00;98.00
19037;DHT22;9651;49.138;8.900;2023-04-30T11:25:03;19.80;98.50
19037;DHT22;9651;49.138;8.900;2023-04-30T11:29:07;19.80;98.40
19037;DHT22;9651;49.138;8.900;2023-04-30T11:33:09;19.80;98.20
19037;DHT22;9651;49.138;8.900;2023-04-30T11:37:15;19.90;97.80
19037;DHT22;9651;49.138;8.900;2023-04-30T11:41:20;19.90;98.00
19037;DHT22;9651;49.138;8.900;2023-04-30T11:45:24;19.80;98.10
19037;DHT22;9651;49.138;8.900;2023-04-30T11:49:26;19.50;98.10
19037;DHT22;9651;49.138;8.900;2023-04-30T11:53:28;19.20;97.50
19037;DHT22;9651;49.138;8.900;2023-04-30T11:57:34;19.50;97.60
19037;DHT22;9651;49.138;8.900;2023-04-30T12:01:37;19.80;97.20
19037;DHT22;9651;49.138;8.900;2023-04-30T12:05:40;19.80;96.20
19037;DHT22;9651;49.138;8.900;2023-04-30T12:09:51;20.10;97.20
19037;DHT22;9651;49.138;8.900;2023-04-30T12:13:54;20.70;96.50
19037;DHT22;9651;49.138;8.900;2023-04-30T12:17:58;21.10;96.60
19037;DHT22;9651;49.138;8.900;2023-04-30T12:22:00;21.60;96.70
19037;DHT22;9651;49.138;8.900;2023-04-30T12:26:02;22.30;95.50
19037;DHT22;9651;49.138;8.900;2023-04-30T12:30:06;22.00;94.90
19037;DHT22;9651;49.138;8.900;2023-04-30T12:34:12;21.60;94.10
19037;DHT22;9651;49.138;8.900;2023-04-30T12:38:15;21.70;94.10
19037;DHT22;9651;49.138;8.900;2023-04-30T12:42:17;22.20;93.80
19037;DHT22;9651;49.138;8.900;2023-04-30T12:46:25;22.50;93.40
19037;DHT22;9651;49.138;8.900;2023-04-30T12:50:30;23.00;93.80
19037;DHT22;9651;49.138;8.900;2023-04-30T12:54:32;24.20;92.90
19037;DHT22;9651;49.138;8.900;2023-04-30T12:58:34;24.90;90.70
19037;DHT22;9651;49.138;8.900;2023-04-30T13:02:36;25.30;87.10
19037;DHT22;9651;49.138;8.900;2023-04-30T13:06:40;25.50;86.40
19037;DHT22;9651;49.138;8.900;2023-04-30T13:10:43;26.20;83.90
19037;DHT22;9651;49.138;8.900;2023-04-30T13:14:46;26.90;80.70
19037;DHT22;9651;49.138;8.900;2023-04-30T13:18:47;25.90;75.40
19037;DHT22;9651;49.138;8.900;2023-04-30T13:22:51;25.60;77.00
19037;DHT22;9651;49.138;8.900;2023-04-30T13:26:53;26.20;76.60
19037;DHT22;9651;49.138;8.900;2023-04-30T13:30:55;27.80;73.40
19037;DHT22;9651;49.138;8.900;2023-04-30T13:34:57;26.30;72.60
19037;DHT22;9651;49.138;8.900;2023-04-30T13:39:00;25.80;75.60
19037;DHT22;9651;49.138;8.900;2023-04-30T13:43:02;26.50;73.80
19037;DHT22;9651;49.138;8.900;2023-04-30T13:47:05;25.50;74.10
19037;DHT22;9651;49.138;8.900;2023-04-30T13:51:07;25.50;73.90
19037;DHT22;9651;49.138;8.900;2023-04-30T13:55:10;25.20;74.80
19037;DHT22;9651;49.138;8.900;2023-04-30T13:59:14;25.00;72.60
19037;DHT22;9651;49.138;8.900;2023-04-30T14:03:16;24.80;72.30
19037;DHT22;9651;49.138;8.900;2023-04-30T14:07:18;24.10;76.30
19037;DHT22;9651;49.138;8.900;2023-04-30T14:11:22;23.60;75.10
19037;DHT22;9651;49.138;8.900;2023-04-30T14:15:24;23.00;76.70
19037;DHT22;9651;49.138;8.900;2023-04-30T14:19:27;22.50;77.30
19037;DHT22;9651;49.138;8.900;2023-04-30T14:23:29;22.20;78.20
19037;DHT22;9651;49.138;8.900;2023-04-30T14:27:32;23.20;77.90
19037;DHT22;9651;49.138;8.900;2023-04-30T14:31:34;24.30;75.50
19037;DHT22;9651;49.138;8.900;2023-04-30T14:35:36;24.50;76.00
19037;DHT22;9651;49.138;8.900;2023-04-30T14:39:37;24.80;74.80
19037;DHT22;9651;49.138;8.900;2023-04-30T14:43:41;24.70;74.40
19037;DHT22;9651;49.138;8.900;2023-04-30T14:47:43;24.20;74.30
19037;DHT22;9651;49.138;8.900;2023-04-30T14:51:44;24.10;75.50
19037;DHT22;9651;49.138;8.900;2023-04-30T14:55:46;23.70;76.00
19037;DHT22;9651;49.138;8.900;2023-04-30T14:59:50;23.80;75.80
19037;DHT22;9651;49.138;8.900;2023-04-30T15:03:54;22.90;78.60
19037;DHT22;9651;49.138;8.900;2023-04-30T15:07:56;22.90;78.20
19037;DHT22;9651;49.138;8.900;2023-04-30T15:11:58;23.20;77.20
19037;DHT22;9651;49.138;8.900;2023-04-30T15:16:01;23.60;76.70
19037;DHT22;9651;49.138;8.900;2023-04-30T15:20:03;23.50;77.20
19037;DHT22;9651;49.138;8.900;2023-04-30T15:24:05;23.60;78.10
19037;DHT22;9651;49.138;8.900;2023-04-30T15:28:08;24.10;76.90
19037;DHT22;9651;49.138;8.900;2023-04-30T15:32:11;24.10;76.10
19037;DHT22;9651;49.138;8.900;2023-04-30T15:36:13;23.90;78.60
19037;DHT22;9651;49.138;8.900;2023-04-30T15:40:15;23.30;78.50
19037;DHT22;9651;49.138;8.900;2023-04-30T15:44:17;23.50;77.80
19037;DHT22;9651;49.138;8.900;2023-04-30T15:48:20;23.50;78.70
19037;DHT22;9651;49.138;8.900;2023-04-30T15:52:22;23.60;77.90
19037;DHT22;9651;49.138;8.900;2023-04-30T15:56:24;23.50;79.50
19037;DHT22;9651;49.138;8.900;2023-04-30T16:00:26;23.30;77.90
19037;DHT22;9651;49.138;8.900;2023-04-30T16:04:30;23.10;77.60
19037;DHT22;9651;49.138;8.900;2023-04-30T16:08:32;23.00;79.90
19037;DHT22;9651;49.138;8.900;2023-04-30T16:12:34;22.80;79.40
19037;DHT22;9651;49.138;8.900;2023-04-30T16:16:37;22.50;79.30
19037;DHT22;9651;49.138;8.900;2023-04-30T16:20:40;22.20;80.00
19037;DHT22;9651;49.138;8.900;2023-04-30T16:24:42;22.00;80.80
19037;DHT22;9651;49.138;8.900;2023-04-30T16:28:44;21.60;81.30
19037;DHT22;9651;49.138;8.900;2023-04-30T16:32:47;21.20;81.20
19037;DHT22;9651;49.138;8.900;2023-04-30T16:36:50;20.60;81.60
19037;DHT22;9651;49.138;8.900;2023-04-30T16:40:52;20.60;81.90
19037;DHT22;9651;49.138;8.900;2023-04-30T16:44:54;20.60;82.90
19037;DHT22;9651;49.138;8.900;2023-04-30T16:48:56;20.20;83.10
19037;DHT22;9651;49.138;8.900;2023-04-30T16:52:59;20.00;83.30
19037;DHT22;9651;49.138;8.900;2023-04-30T16:57:01;19.70;83.30
19037;DHT22;9651;49.138;8.900;2023-04-30T17:01:04;19.30;85.30
19037;DHT22;9651;49.138;8.900;2023-04-30T17:05:09;19.30;85.50
19037;DHT22;9651;49.138;8.900;2023-04-30T17:09:12;19.30;86.50
19037;DHT22;9651;49.138;8.900;2023-04-30T17:13:14;19.30;87.20
19037;DHT22;9651;49.138;8.900;2023-04-30T17:17:16;19.20;87.90
19037;DHT22;9651;49.138;8.900;2023-04-30T17:21:18;19.10;88.50
19037;DHT22;9651;49.138;8.900;2023-04-30T17:25:21;19.20;89.50
19037;DHT22;9651;49.138;8.900;2023-04-30T17:29:23;19.10;90.50
19037;DHT22;9651;49.138;8.900;2023-04-30T17:33:25;19.10;90.40
19037;DHT22;9651;49.138;8.900;2023-04-30T17:37:27;19.00;90.70
19037;DHT22;9651;49.138;8.900;2023-04-30T17:41:30;18.90;90.80
19037;DHT22;9651;49.138;8.900;2023-04-30T17:45:32;18.90;91.20
19037;DHT22;9651;49.138;8.900;2023-04-30T17:49:34;18.80;91.60
19037;DHT22;9651;49.138;8.900;2023-04-30T17:53:36;18.70;92.10
19037;DHT22;9651;49.138;8.900;2023-04-30T17:57:39;18.60;92.50
19037;DHT22;9651;49.138;8.900;2023-04-30T18:01:41;18.50;92.20
19037;DHT22;9651;49.138;8.900;2023-04-30T18:05:43;18.40;92.50
19037;DHT22;9651;49.138;8.900;2023-04-30T18:09:45;18.30;93.30
19037;DHT22;9651;49.138;8.900;2023-04-30T18:13:48;18.30;94.40
19037;DHT22;9651;49.138;8.900;2023-04-30T18:17:50;18.10;95.60
19037;DHT22;9651;49.138;8.900;2023-04-30T18:21:52;18.00;96.20
19037;DHT22;9651;49.138;8.900;2023-04-30T18:25:55;17.90;96.30
19037;DHT22;9651;49.138;8.900;2023-04-30T18:29:59;17.70;97.80
19037;DHT22;9651;49.138;8.900;2023-04-30T18:34:01;17.40;98.90
19037;DHT22;9651;49.138;8.900;2023-04-30T18:38:03;17.10;99.90
19037;DHT22;9651;49.138;8.900;2023-04-30T18:42:07;16.80;99.90
19037;DHT22;9651;49.138;8.900;2023-04-30T18:46:11;16.50;99.90
19037;DHT22;9651;49.138;8.900;2023-04-30T18:50:13;16.30;99.90
19037;DHT22;9651;49.138;8.900;2023-04-30T18:54:17;16.00;99.90
19037;DHT22;9651;49.138;8.900;2023-04-30T18:58:19;15.80;99.90
19037;DHT22;9651;49.138;8.900;2023-04-30T19:02:23;15.60;99.90
19037;DHT22;9651;49.138;8.900;2023-04-30T19:06:25;15.30;99.90
19037;DHT22;9651;49.138;8.900;2023-04-30T19:10:27;15.10;99.90
19037;DHT22;9651;49.138;8.900;2023-04-30T19:14:29;15.00;99.90
19037;DHT22;9651;49.138;8.900;2023-04-30T19:18:33;14.90;99.90
19037;DHT22;9651;49.138;8.900;2023-04-30T19:22:36;14.70;99.90
19037;DHT22;9651;49.138;8.900;2023-04-30T19:26:37;14.60;99.90
19037;DHT22;9651;49.138;8.900;2023-04-30T19:30:41;14.50;99.90
19037;DHT22;9651;49.138;8.900;2023-04-30T19:34:45;14.30;99.90
19037;DHT22;9651;49.138;8.900;2023-04-30T19:38:49;14.20;99.90
19037;DHT22;9651;49.138;8.900;2023-04-30T19:42:52;14.20;99.90
19037;DHT22;9651;49.138;8.900;2023-04-30T19:46:54;14.10;99.90
19037;DHT22;9651;49.138;8.900;2023-04-30T19:51:02;14.00;99.90
19037;DHT22;9651;49.138;8.900;2023-04-30T19:55:04;14.00;99.90
19037;DHT22;9651;49.138;8.900;2023-04-30T19:59:06;13.90;99.90
19037;DHT22;9651;49.138;8.900;2023-04-30T20:03:08;13.80;99.90
19037;DHT22;9651;49.138;8.900;2023-04-30T20:07:11;13.70;99.90
19037;DHT22;9651;49.138;8.900;2023-04-30T20:11:13;13.60;99.90
19037;DHT22;9651;49.138;8.900;2023-04-30T20:15:15;13.50;99.90
19037;DHT22;9651;49.138;8.900;2023-04-30T20:19:18;13.40;99.90
19037;DHT22;9651;49.138;8.900;2023-04-30T20:23:21;13.40;99.90
19037;DHT22;9651;49.138;8.900;2023-04-30T20:27:23;13.30;99.90
19037;DHT22;9651;49.138;8.900;2023-04-30T20:31:25;13.20;99.90
19037;DHT22;9651;49.138;8.900;2023-04-30T20:35:30;13.00;99.90
19037;DHT22;9651;49.138;8.900;2023-04-30T20:39:34;12.90;99.90
19037;DHT22;9651;49.138;8.900;2023-04-30T20:43:35;12.80;99.90
19037;DHT22;9651;49.138;8.900;2023-04-30T20:47:38;12.70;99.90
19037;DHT22;9651;49.138;8.900;2023-04-30T20:51:40;12.60;99.90
19037;DHT22;9651;49.138;8.900;2023-04-30T20:55:43;12.50;99.90
19037;DHT22;9651;49.138;8.900;2023-04-30T20:59:45;12.50;99.90
19037;DHT22;9651;49.138;8.900;2023-04-30T21:03:47;12.50;99.90
19037;DHT22;9651;49.138;8.900;2023-04-30T21:07:50;12.40;99.90
19037;DHT22;9651;49.138;8.900;2023-04-30T21:11:53;12.30;99.90
19037;DHT22;9651;49.138;8.900;2023-04-30T21:15:55;12.20;99.90
19037;DHT22;9651;49.138;8.900;2023-04-30T21:19:57;12.10;99.90
19037;DHT22;9651;49.138;8.900;2023-04-30T21:23:59;12.00;99.90
19037;DHT22;9651;49.138;8.900;2023-04-30T21:28:03;11.90;99.90
19037;DHT22;9651;49.138;8.900;2023-04-30T21:32:05;11.90;99.90
19037;DHT22;9651;49.138;8.900;2023-04-30T21:36:07;11.80;99.90
19037;DHT22;9651;49.138;8.900;2023-04-30T21:40:09;11.90;99.90
19037;DHT22;9651;49.138;8.900;2023-04-30T21:44:13;12.10;99.90
19037;DHT22;9651;49.138;8.900;2023-04-30T21:48:14;12.10;99.90
19037;DHT22;9651;49.138;8.900;2023-04-30T21:52:17;12.20;99.90
19037;DHT22;9651;49.138;8.900;2023-04-30T21:56:18;12.00;99.90
19037;DHT22;9651;49.138;8.900;2023-04-30T22:00:22;11.80;99.90
19037;DHT22;9651;49.138;8.900;2023-04-30T22:04:24;11.70;99.90
19037;DHT22;9651;49.138;8.900;2023-04-30T22:08:26;11.60;99.90
19037;DHT22;9651;49.138;8.900;2023-04-30T22:12:28;11.60;99.90
19037;DHT22;9651;49.138;8.900;2023-04-30T22:16:31;11.60;99.90
19037;DHT22;9651;49.138;8.900;2023-04-30T22:20:33;11.70;99.90
19037;DHT22;9651;49.138;8.900;2023-04-30T22:24:35;11.70;99.90
19037;DHT22;9651;49.138;8.900;2023-04-30T22:28:37;11.50;99.90
19037;DHT22;9651;49.138;8.900;2023-04-30T22:32:40;11.30;99.90
19037;DHT22;9651;49.138;8.900;2023-04-30T22:36:43;11.20;99.90
19037;DHT22;9651;49.138;8.900;2023-04-30T22:40:45;11.30;99.90
19037;DHT22;9651;49.138;8.900;2023-04-30T22:44:47;11.30;99.90
19037;DHT22;9651;49.138;8.900;2023-04-30T22:48:51;11.40;99.90
19037;DHT22;9651;49.138;8.900;2023-04-30T22:52:54;11.40;99.90
19037;DHT22;9651;49.138;8.900;2023-04-30T22:56:56;11.40;99.90
19037;DHT22;9651;49.138;8.900;2023-04-30T23:00:59;11.30;99.90
19037;DHT22;9651;49.138;8.900;2023-04-30T23:05:02;11.20;99.90
19037;DHT22;9651;49.138;8.900;2023-04-30T23:09:04;11.20;99.90
19037;DHT22;9651;49.138;8.900;2023-04-30T23:13:06;11.20;99.90
19037;DHT22;9651;49.138;8.900;2023-04-30T23:17:08;11.20;99.90
19037;DHT22;9651;49.138;8.900;2023-04-30T23:21:11;11.20;99.90
19037;DHT22;9651;49.138;8.900;2023-04-30T23:25:13;11.20;99.90
19037;DHT22;9651;49.138;8.900;2023-04-30T23:29:15;11.20;99.90
19037;DHT22;9651;49.138;8.900;2023-04-30T23:33:17;11.20;99.90
19037;DHT22;9651;49.138;8.900;2023-04-30T23:37:20;11.20;99.90
19037;DHT22;9651;49.138;8.900;2023-04-30T23:41:22;11.20;99.90
19037;DHT22;9651;49.138;8.900;2023-04-30T23:45:24;11.20;99.90
19037;DHT22;9651;49.138;8.900;2023-04-30T23:49:26;11.20;99.90
19037;DHT22;9651;49.138;8.900;2023-04-30T23:53:30;11.10;99.90
19037;DHT22;9651;49.138;8.900;2023-04-30T23:57:31;11.10;99.90
